sensor_id;sensor_type;location;lat;lon;timestamp;P1;durP1;ratioP1;P2;durP2;ratioP2
28481;SDS011;15703;49.588;6.260;2024-01-25T00:03:16;23.97;;;5.77;;
28481;SDS011;15703;49.588;6.260;2024-01-25T00:05:57;23.07;;;6.50;;
28481;SDS011;15703;49.588;6.260;2024-01-25T00:08:19;30.93;;;6.00;;
28481;SDS011;15703;49.588;6.260;2024-01-25T00:10:46;25.67;;;5.87;;
28481;SDS011;15703;49.588;6.260;2024-01-25T00:13:09;27.83;;;6.73;;
28481;SDS011;15703;49.588;6.260;2024-01-25T00:15:31;19.83;;;5.37;;
28481;SDS011;15703;49.588;6.260;2024-01-25T00:17:54;24.17;;;5.57;;
28481;SDS011;15703;49.588;6.260;2024-01-25T00:20:18;20.20;;;5.23;;
28481;SDS011;15703;49.588;6.260;2024-01-25T00:22:46;18.37;;;5.00;;
28481;SDS011;15703;49.588;6.260;2024-01-25T00:25:08;27.57;;;5.57;;
28481;SDS011;15703;49.588;6.260;2024-01-25T00:27:31;28.70;;;5.97;;
28481;SDS011;15703;49.588;6.260;2024-01-25T00:29:53;25.77;;;5.63;;
28481;SDS011;15703;49.588;6.260;2024-01-25T00:32:16;20.60;;;5.00;;
28481;SDS011;15703;49.588;6.260;2024-01-25T00:34:39;28.57;;;5.97;;
28481;SDS011;15703;49.588;6.260;2024-01-25T00:37:01;26.23;;;6.13;;
28481;SDS011;15703;49.588;6.260;2024-01-25T00:39:24;22.17;;;5.60;;
28481;SDS011;15703;49.588;6.260;2024-01-25T00:41:46;33.70;;;7.67;;
28481;SDS011;15703;49.588;6.260;2024-01-25T00:44:12;19.60;;;5.43;;
28481;SDS011;15703;49.588;6.260;2024-01-25T00:46:35;30.67;;;6.93;;
28481;SDS011;15703;49.588;6.260;2024-01-25T00:49:02;25.40;;;6.10;;
28481;SDS011;15703;49.588;6.260;2024-01-25T00:51:26;25.03;;;6.67;;
28481;SDS011;15703;49.588;6.260;2024-01-25T00:57:21;20.03;;;5.50;;
28481;SDS011;15703;49.588;6.260;2024-01-25T00:59:44;27.00;;;5.53;;
28481;SDS011;15703;49.588;6.260;2024-01-25T01:02:07;24.60;;;5.47;;
28481;SDS011;15703;49.588;6.260;2024-01-25T01:04:38;29.10;;;6.37;;
28481;SDS011;15703;49.588;6.260;2024-01-25T01:07:09;27.53;;;6.03;;
28481;SDS011;15703;49.588;6.260;2024-01-25T01:13:34;21.77;;;5.37;;
28481;SDS011;15703;49.588;6.260;2024-01-25T01:15:58;28.83;;;6.10;;
28481;SDS011;15703;49.588;6.260;2024-01-25T01:18:21;22.83;;;5.77;;
28481;SDS011;15703;49.588;6.260;2024-01-25T01:20:44;35.20;;;6.37;;
28481;SDS011;15703;49.588;6.260;2024-01-25T01:23:06;28.30;;;6.57;;
28481;SDS011;15703;49.588;6.260;2024-01-25T01:25:28;29.33;;;6.87;;
28481;SDS011;15703;49.588;6.260;2024-01-25T01:27:51;35.10;;;6.77;;
28481;SDS011;15703;49.588;6.260;2024-01-25T01:30:14;23.60;;;6.53;;
28481;SDS011;15703;49.588;6.260;2024-01-25T01:32:36;22.53;;;5.47;;
28481;SDS011;15703;49.588;6.260;2024-01-25T01:35:01;21.73;;;5.80;;
28481;SDS011;15703;49.588;6.260;2024-01-25T01:37:24;27.13;;;7.20;;
28481;SDS011;15703;49.588;6.260;2024-01-25T01:42:50;22.03;;;5.73;;
28481;SDS011;15703;49.588;6.260;2024-01-25T01:45:13;32.37;;;6.57;;
28481;SDS011;15703;49.588;6.260;2024-01-25T01:47:36;22.07;;;5.27;;
28481;SDS011;15703;49.588;6.260;2024-01-25T01:49:59;30.37;;;6.27;;
28481;SDS011;15703;49.588;6.260;2024-01-25T01:52:22;25.87;;;6.30;;
28481;SDS011;15703;49.588;6.260;2024-01-25T01:54:55;24.87;;;5.60;;
28481;SDS011;15703;49.588;6.260;2024-01-25T01:57:17;25.17;;;5.83;;
28481;SDS011;15703;49.588;6.260;2024-01-25T01:59:40;23.07;;;6.17;;
28481;SDS011;15703;49.588;6.260;2024-01-25T02:02:03;25.20;;;5.60;;
28481;SDS011;15703;49.588;6.260;2024-01-25T02:13:20;27.77;;;5.70;;
28481;SDS011;15703;49.588;6.260;2024-01-25T02:15:47;30.73;;;6.33;;
28481;SDS011;15703;49.588;6.260;2024-01-25T02:24:04;27.10;;;6.00;;
28481;SDS011;15703;49.588;6.260;2024-01-25T02:32:08;24.10;;;6.30;;
28481;SDS011;15703;49.588;6.260;2024-01-25T02:34:40;25.53;;;5.90;;
28481;SDS011;15703;49.588;6.260;2024-01-25T02:37:03;25.27;;;6.00;;
28481;SDS011;15703;49.588;6.260;2024-01-25T02:39:29;24.43;;;5.80;;
28481;SDS011;15703;49.588;6.260;2024-01-25T02:41:51;28.63;;;5.77;;
28481;SDS011;15703;49.588;6.260;2024-01-25T02:44:14;32.33;;;7.03;;
28481;SDS011;15703;49.588;6.260;2024-01-25T02:46:36;28.23;;;6.67;;
28481;SDS011;15703;49.588;6.260;2024-01-25T02:49:01;32.33;;;6.50;;
28481;SDS011;15703;49.588;6.260;2024-01-25T02:51:25;26.63;;;6.63;;
28481;SDS011;15703;49.588;6.260;2024-01-25T02:59:35;26.50;;;5.63;;
28481;SDS011;15703;49.588;6.260;2024-01-25T03:01:57;23.10;;;5.73;;
28481;SDS011;15703;49.588;6.260;2024-01-25T03:11:11;19.67;;;5.43;;
28481;SDS011;15703;49.588;6.260;2024-01-25T03:13:33;23.60;;;5.77;;
28481;SDS011;15703;49.588;6.260;2024-01-25T03:19:28;22.33;;;5.47;;
28481;SDS011;15703;49.588;6.260;2024-01-25T03:21:51;27.87;;;5.10;;
28481;SDS011;15703;49.588;6.260;2024-01-25T03:24:13;31.70;;;6.43;;
28481;SDS011;15703;49.588;6.260;2024-01-25T03:33:38;21.10;;;6.20;;
28481;SDS011;15703;49.588;6.260;2024-01-25T03:36:04;22.73;;;5.70;;
28481;SDS011;15703;49.588;6.260;2024-01-25T03:38:27;21.10;;;5.17;;
28481;SDS011;15703;49.588;6.260;2024-01-25T03:40:50;21.53;;;5.60;;
28481;SDS011;15703;49.588;6.260;2024-01-25T03:43:12;29.33;;;7.13;;
28481;SDS011;15703;49.588;6.260;2024-01-25T03:45:43;26.20;;;6.00;;
28481;SDS011;15703;49.588;6.260;2024-01-25T03:48:05;30.37;;;6.33;;
28481;SDS011;15703;49.588;6.260;2024-01-25T03:50:31;32.93;;;6.93;;
28481;SDS011;15703;49.588;6.260;2024-01-25T03:52:54;28.63;;;5.93;;
28481;SDS011;15703;49.588;6.260;2024-01-25T03:59:07;28.43;;;5.60;;
28481;SDS011;15703;49.588;6.260;2024-01-25T04:01:33;36.83;;;6.70;;
28481;SDS011;15703;49.588;6.260;2024-01-25T04:03:59;29.67;;;6.03;;
28481;SDS011;15703;49.588;6.260;2024-01-25T04:09:15;21.57;;;5.87;;
28481;SDS011;15703;49.588;6.260;2024-01-25T04:11:42;25.60;;;5.90;;
28481;SDS011;15703;49.588;6.260;2024-01-25T04:16:52;24.70;;;6.43;;
28481;SDS011;15703;49.588;6.260;2024-01-25T04:19:14;31.43;;;6.63;;
28481;SDS011;15703;49.588;6.260;2024-01-25T04:21:37;32.27;;;7.40;;
28481;SDS011;15703;49.588;6.260;2024-01-25T04:23:59;24.83;;;6.43;;
28481;SDS011;15703;49.588;6.260;2024-01-25T04:26:22;27.73;;;6.43;;
28481;SDS011;15703;49.588;6.260;2024-01-25T04:28:45;29.63;;;7.33;;
28481;SDS011;15703;49.588;6.260;2024-01-25T04:31:07;23.90;;;6.90;;
28481;SDS011;15703;49.588;6.260;2024-01-25T04:36:24;23.13;;;5.60;;
28481;SDS011;15703;49.588;6.260;2024-01-25T04:38:46;17.23;;;5.50;;
28481;SDS011;15703;49.588;6.260;2024-01-25T04:41:09;18.67;;;4.97;;
28481;SDS011;15703;49.588;6.260;2024-01-25T04:47:00;22.17;;;4.83;;
28481;SDS011;15703;49.588;6.260;2024-01-25T04:49:22;22.33;;;5.77;;
28481;SDS011;15703;49.588;6.260;2024-01-25T04:51:45;24.23;;;6.07;;
28481;SDS011;15703;49.588;6.260;2024-01-25T04:54:07;21.70;;;5.60;;
28481;SDS011;15703;49.588;6.260;2024-01-25T04:56:34;26.70;;;5.93;;
28481;SDS011;15703;49.588;6.260;2024-01-25T04:58:56;25.07;;;5.67;;
28481;SDS011;15703;49.588;6.260;2024-01-25T05:01:18;24.57;;;6.47;;
28481;SDS011;15703;49.588;6.260;2024-01-25T05:03:41;24.87;;;5.90;;
28481;SDS011;15703;49.588;6.260;2024-01-25T05:06:06;16.33;;;5.00;;
28481;SDS011;15703;49.588;6.260;2024-01-25T05:08:28;17.27;;;4.83;;
28481;SDS011;15703;49.588;6.260;2024-01-25T05:10:51;22.43;;;5.67;;
28481;SDS011;15703;49.588;6.260;2024-01-25T05:13:16;19.70;;;5.37;;
28481;SDS011;15703;49.588;6.260;2024-01-25T05:15:38;21.63;;;5.23;;
28481;SDS011;15703;49.588;6.260;2024-01-25T05:18:04;25.97;;;6.47;;
28481;SDS011;15703;49.588;6.260;2024-01-25T05:20:27;31.13;;;6.20;;
28481;SDS011;15703;49.588;6.260;2024-01-25T05:22:56;19.87;;;5.73;;
28481;SDS011;15703;49.588;6.260;2024-01-25T05:25:19;25.10;;;6.87;;
28481;SDS011;15703;49.588;6.260;2024-01-25T05:33:00;20.30;;;5.53;;
28481;SDS011;15703;49.588;6.260;2024-01-25T05:35:28;21.40;;;5.73;;
28481;SDS011;15703;49.588;6.260;2024-01-25T05:40:43;22.13;;;7.50;;
28481;SDS011;15703;49.588;6.260;2024-01-25T05:43:05;20.27;;;5.50;;
28481;SDS011;15703;49.588;6.260;2024-01-25T05:45:28;16.00;;;5.07;;
28481;SDS011;15703;49.588;6.260;2024-01-25T05:47:51;23.87;;;6.23;;
28481;SDS011;15703;49.588;6.260;2024-01-25T05:50:16;28.33;;;6.47;;
28481;SDS011;15703;49.588;6.260;2024-01-25T05:59:34;13.70;;;5.30;;
28481;SDS011;15703;49.588;6.260;2024-01-25T06:01:57;22.80;;;5.83;;
28481;SDS011;15703;49.588;6.260;2024-01-25T06:04:20;30.17;;;6.10;;
28481;SDS011;15703;49.588;6.260;2024-01-25T06:06:59;29.27;;;7.10;;
28481;SDS011;15703;49.588;6.260;2024-01-25T06:09:23;19.83;;;6.43;;
28481;SDS011;15703;49.588;6.260;2024-01-25T06:11:48;28.77;;;6.30;;
28481;SDS011;15703;49.588;6.260;2024-01-25T06:14:15;20.17;;;6.30;;
28481;SDS011;15703;49.588;6.260;2024-01-25T06:16:43;23.43;;;6.43;;
28481;SDS011;15703;49.588;6.260;2024-01-25T06:19:15;13.50;;;5.37;;
28481;SDS011;15703;49.588;6.260;2024-01-25T06:21:44;30.23;;;6.80;;
28481;SDS011;15703;49.588;6.260;2024-01-25T06:24:07;22.37;;;5.73;;
28481;SDS011;15703;49.588;6.260;2024-01-25T06:26:29;25.47;;;5.97;;
28481;SDS011;15703;49.588;6.260;2024-01-25T06:28:52;16.97;;;4.87;;
28481;SDS011;15703;49.588;6.260;2024-01-25T06:31:14;12.93;;;5.63;;
28481;SDS011;15703;49.588;6.260;2024-01-25T06:37:32;17.07;;;5.33;;
28481;SDS011;15703;49.588;6.260;2024-01-25T06:42:47;31.87;;;6.90;;
28481;SDS011;15703;49.588;6.260;2024-01-25T06:45:14;22.60;;;6.53;;
28481;SDS011;15703;49.588;6.260;2024-01-25T06:50:40;17.23;;;6.17;;
28481;SDS011;15703;49.588;6.260;2024-01-25T06:53:03;32.80;;;7.13;;
28481;SDS011;15703;49.588;6.260;2024-01-25T06:55:26;37.93;;;7.93;;
28481;SDS011;15703;49.588;6.260;2024-01-25T06:57:49;21.97;;;6.43;;
28481;SDS011;15703;49.588;6.260;2024-01-25T07:00:11;41.43;;;7.43;;
28481;SDS011;15703;49.588;6.260;2024-01-25T07:08:37;28.20;;;8.10;;
28481;SDS011;15703;49.588;6.260;2024-01-25T07:11:07;28.57;;;6.90;;
28481;SDS011;15703;49.588;6.260;2024-01-25T07:13:29;30.50;;;6.87;;
28481;SDS011;15703;49.588;6.260;2024-01-25T07:19:50;28.83;;;13.50;;
28481;SDS011;15703;49.588;6.260;2024-01-25T07:22:19;33.20;;;13.90;;
28481;SDS011;15703;49.588;6.260;2024-01-25T07:24:44;33.93;;;13.70;;
28481;SDS011;15703;49.588;6.260;2024-01-25T07:27:07;24.33;;;10.83;;
28481;SDS011;15703;49.588;6.260;2024-01-25T07:37:24;12.60;;;5.53;;
28481;SDS011;15703;49.588;6.260;2024-01-25T07:39:46;20.40;;;7.07;;
28481;SDS011;15703;49.588;6.260;2024-01-25T07:42:09;18.73;;;6.77;;
28481;SDS011;15703;49.588;6.260;2024-01-25T07:44:32;20.73;;;5.97;;
28481;SDS011;15703;49.588;6.260;2024-01-25T07:47:02;21.00;;;6.07;;
28481;SDS011;15703;49.588;6.260;2024-01-25T07:54:45;28.67;;;7.13;;
28481;SDS011;15703;49.588;6.260;2024-01-25T08:05:47;30.43;;;6.37;;
28481;SDS011;15703;49.588;6.260;2024-01-25T08:08:15;22.27;;;6.77;;
28481;SDS011;15703;49.588;6.260;2024-01-25T08:10:43;21.97;;;7.27;;
28481;SDS011;15703;49.588;6.260;2024-01-25T08:13:13;28.33;;;8.53;;
28481;SDS011;15703;49.588;6.260;2024-01-25T08:31:46;21.10;;;6.60;;
28481;SDS011;15703;49.588;6.260;2024-01-25T08:34:10;35.97;;;7.13;;
28481;SDS011;15703;49.588;6.260;2024-01-25T08:40:04;27.97;;;7.57;;
28481;SDS011;15703;49.588;6.260;2024-01-25T08:44:56;32.37;;;7.77;;
28481;SDS011;15703;49.588;6.260;2024-01-25T08:47:19;29.67;;;8.37;;
28481;SDS011;15703;49.588;6.260;2024-01-25T08:49:41;37.07;;;9.27;;
28481;SDS011;15703;49.588;6.260;2024-01-25T08:52:09;33.80;;;7.33;;
28481;SDS011;15703;49.588;6.260;2024-01-25T08:54:32;37.83;;;8.93;;
28481;SDS011;15703;49.588;6.260;2024-01-25T08:57:00;32.17;;;7.93;;
28481;SDS011;15703;49.588;6.260;2024-01-25T09:02:12;32.10;;;7.67;;
28481;SDS011;15703;49.588;6.260;2024-01-25T09:04:36;23.07;;;6.97;;
28481;SDS011;15703;49.588;6.260;2024-01-25T09:07:00;28.17;;;7.90;;
28481;SDS011;15703;49.588;6.260;2024-01-25T09:09:32;26.57;;;7.40;;
28481;SDS011;15703;49.588;6.260;2024-01-25T09:12:00;29.97;;;8.97;;
28481;SDS011;15703;49.588;6.260;2024-01-25T09:18:18;39.00;;;7.80;;
28481;SDS011;15703;49.588;6.260;2024-01-25T09:27:04;33.77;;;7.93;;
28481;SDS011;15703;49.588;6.260;2024-01-25T09:29:26;34.03;;;8.43;;
28481;SDS011;15703;49.588;6.260;2024-01-25T09:42:32;26.37;;;6.23;;
28481;SDS011;15703;49.588;6.260;2024-01-25T09:44:55;30.10;;;7.87;;
28481;SDS011;15703;49.588;6.260;2024-01-25T09:47:17;20.37;;;5.60;;
28481;SDS011;15703;49.588;6.260;2024-01-25T09:49:41;25.93;;;6.13;;
28481;SDS011;15703;49.588;6.260;2024-01-25T09:52:07;25.17;;;5.73;;
28481;SDS011;15703;49.588;6.260;2024-01-25T09:54:35;28.03;;;7.70;;
28481;SDS011;15703;49.588;6.260;2024-01-25T09:56:58;22.13;;;6.90;;
28481;SDS011;15703;49.588;6.260;2024-01-25T09:59:20;26.50;;;6.27;;
28481;SDS011;15703;49.588;6.260;2024-01-25T10:01:43;35.83;;;7.30;;
28481;SDS011;15703;49.588;6.260;2024-01-25T10:04:07;26.83;;;6.77;;
28481;SDS011;15703;49.588;6.260;2024-01-25T10:06:30;21.47;;;5.80;;
28481;SDS011;15703;49.588;6.260;2024-01-25T10:08:53;30.57;;;6.30;;
28481;SDS011;15703;49.588;6.260;2024-01-25T10:11:17;24.63;;;6.23;;
28481;SDS011;15703;49.588;6.260;2024-01-25T10:13:46;18.67;;;5.53;;
28481;SDS011;15703;49.588;6.260;2024-01-25T10:16:12;23.20;;;5.13;;
28481;SDS011;15703;49.588;6.260;2024-01-25T10:18:36;27.60;;;6.17;;
28481;SDS011;15703;49.588;6.260;2024-01-25T10:20:59;22.20;;;5.37;;
28481;SDS011;15703;49.588;6.260;2024-01-25T10:23:22;19.87;;;5.37;;
28481;SDS011;15703;49.588;6.260;2024-01-25T10:25:47;27.30;;;6.90;;
28481;SDS011;15703;49.588;6.260;2024-01-25T10:28:10;32.13;;;7.37;;
28481;SDS011;15703;49.588;6.260;2024-01-25T10:30:32;23.33;;;6.23;;
28481;SDS011;15703;49.588;6.260;2024-01-25T10:32:56;22.93;;;6.40;;
28481;SDS011;15703;49.588;6.260;2024-01-25T10:35:18;21.23;;;5.40;;
28481;SDS011;15703;49.588;6.260;2024-01-25T10:37:45;19.77;;;5.60;;
28481;SDS011;15703;49.588;6.260;2024-01-25T10:40:09;22.23;;;5.17;;
28481;SDS011;15703;49.588;6.260;2024-01-25T10:42:34;24.70;;;5.07;;
28481;SDS011;15703;49.588;6.260;2024-01-25T10:44:57;34.40;;;6.80;;
28481;SDS011;15703;49.588;6.260;2024-01-25T10:47:19;26.47;;;6.60;;
28481;SDS011;15703;49.588;6.260;2024-01-25T10:49:42;24.57;;;5.73;;
28481;SDS011;15703;49.588;6.260;2024-01-25T10:52:05;21.17;;;5.03;;
28481;SDS011;15703;49.588;6.260;2024-01-25T10:54:28;24.90;;;5.87;;
28481;SDS011;15703;49.588;6.260;2024-01-25T10:56:50;20.83;;;5.53;;
28481;SDS011;15703;49.588;6.260;2024-01-25T10:59:15;30.67;;;5.83;;
28481;SDS011;15703;49.588;6.260;2024-01-25T11:01:43;26.17;;;7.07;;
28481;SDS011;15703;49.588;6.260;2024-01-25T11:04:14;30.70;;;5.53;;
28481;SDS011;15703;49.588;6.260;2024-01-25T11:06:38;33.83;;;5.90;;
28481;SDS011;15703;49.588;6.260;2024-01-25T11:09:04;23.03;;;5.83;;
28481;SDS011;15703;49.588;6.260;2024-01-25T11:11:27;23.03;;;5.47;;
28481;SDS011;15703;49.588;6.260;2024-01-25T11:13:50;25.83;;;5.93;;
28481;SDS011;15703;49.588;6.260;2024-01-25T11:16:13;23.57;;;5.33;;
28481;SDS011;15703;49.588;6.260;2024-01-25T11:18:46;24.20;;;5.13;;
28481;SDS011;15703;49.588;6.260;2024-01-25T11:21:09;20.70;;;5.87;;
28481;SDS011;15703;49.588;6.260;2024-01-25T11:23:31;27.30;;;6.33;;
28481;SDS011;15703;49.588;6.260;2024-01-25T11:25:54;28.40;;;5.93;;
28481;SDS011;15703;49.588;6.260;2024-01-25T11:28:16;25.93;;;6.30;;
28481;SDS011;15703;49.588;6.260;2024-01-25T11:30:39;28.37;;;6.23;;
28481;SDS011;15703;49.588;6.260;2024-01-25T11:33:06;23.37;;;6.40;;
28481;SDS011;15703;49.588;6.260;2024-01-25T11:35:29;32.57;;;7.30;;
28481;SDS011;15703;49.588;6.260;2024-01-25T11:37:52;25.37;;;5.53;;
28481;SDS011;15703;49.588;6.260;2024-01-25T11:40:15;35.73;;;6.23;;
28481;SDS011;15703;49.588;6.260;2024-01-25T11:42:38;23.83;;;6.87;;
28481;SDS011;15703;49.588;6.260;2024-01-25T11:45:03;29.43;;;6.43;;
28481;SDS011;15703;49.588;6.260;2024-01-25T11:47:25;22.30;;;6.83;;
28481;SDS011;15703;49.588;6.260;2024-01-25T11:49:48;27.40;;;6.37;;
28481;SDS011;15703;49.588;6.260;2024-01-25T11:52:10;30.23;;;7.03;;
28481;SDS011;15703;49.588;6.260;2024-01-25T11:54:33;29.63;;;5.77;;
28481;SDS011;15703;49.588;6.260;2024-01-25T11:56:56;27.13;;;6.40;;
28481;SDS011;15703;49.588;6.260;2024-01-25T11:59:18;29.97;;;7.07;;
28481;SDS011;15703;49.588;6.260;2024-01-25T12:01:40;23.93;;;6.83;;
28481;SDS011;15703;49.588;6.260;2024-01-25T12:04:04;23.03;;;7.27;;
28481;SDS011;15703;49.588;6.260;2024-01-25T12:06:26;41.23;;;8.23;;
28481;SDS011;15703;49.588;6.260;2024-01-25T12:08:49;30.10;;;8.03;;
28481;SDS011;15703;49.588;6.260;2024-01-25T12:11:13;24.90;;;6.60;;
28481;SDS011;15703;49.588;6.260;2024-01-25T12:13:36;29.23;;;7.20;;
28481;SDS011;15703;49.588;6.260;2024-01-25T12:16:00;31.70;;;7.87;;
28481;SDS011;15703;49.588;6.260;2024-01-25T12:18:23;32.80;;;7.20;;
28481;SDS011;15703;49.588;6.260;2024-01-25T12:20:46;28.00;;;6.67;;
28481;SDS011;15703;49.588;6.260;2024-01-25T12:23:09;22.53;;;6.90;;
28481;SDS011;15703;49.588;6.260;2024-01-25T12:25:31;30.27;;;6.90;;
28481;SDS011;15703;49.588;6.260;2024-01-25T12:27:54;22.40;;;5.80;;
28481;SDS011;15703;49.588;6.260;2024-01-25T12:30:17;19.97;;;5.33;;
28481;SDS011;15703;49.588;6.260;2024-01-25T12:32:39;20.20;;;5.37;;
28481;SDS011;15703;49.588;6.260;2024-01-25T12:35:01;20.13;;;6.00;;
28481;SDS011;15703;49.588;6.260;2024-01-25T12:37:25;17.53;;;5.33;;
28481;SDS011;15703;49.588;6.260;2024-01-25T12:39:48;17.13;;;5.40;;
28481;SDS011;15703;49.588;6.260;2024-01-25T12:42:12;23.37;;;5.13;;
28481;SDS011;15703;49.588;6.260;2024-01-25T12:44:34;14.43;;;3.93;;
28481;SDS011;15703;49.588;6.260;2024-01-25T12:46:57;12.63;;;4.17;;
28481;SDS011;15703;49.588;6.260;2024-01-25T12:49:22;13.90;;;4.33;;
28481;SDS011;15703;49.588;6.260;2024-01-25T12:51:45;8.67;;;4.07;;
28481;SDS011;15703;49.588;6.260;2024-01-25T12:54:12;7.67;;;3.23;;
28481;SDS011;15703;49.588;6.260;2024-01-25T12:56:35;9.60;;;3.63;;
28481;SDS011;15703;49.588;6.260;2024-01-25T12:58:57;12.87;;;3.73;;
28481;SDS011;15703;49.588;6.260;2024-01-25T13:01:20;8.63;;;3.27;;
28481;SDS011;15703;49.588;6.260;2024-01-25T13:03:43;8.50;;;3.00;;
28481;SDS011;15703;49.588;6.260;2024-01-25T13:06:08;6.57;;;2.83;;
28481;SDS011;15703;49.588;6.260;2024-01-25T13:08:32;6.73;;;3.00;;
28481;SDS011;15703;49.588;6.260;2024-01-25T13:10:54;9.07;;;3.10;;
28481;SDS011;15703;49.588;6.260;2024-01-25T13:13:17;7.10;;;3.00;;
28481;SDS011;15703;49.588;6.260;2024-01-25T13:15:39;8.17;;;2.70;;
28481;SDS011;15703;49.588;6.260;2024-01-25T13:18:01;6.73;;;2.77;;
28481;SDS011;15703;49.588;6.260;2024-01-25T13:20:24;11.10;;;3.00;;
28481;SDS011;15703;49.588;6.260;2024-01-25T13:22:47;13.37;;;3.23;;
28481;SDS011;15703;49.588;6.260;2024-01-25T13:25:09;7.60;;;3.03;;
28481;SDS011;15703;49.588;6.260;2024-01-25T13:27:33;8.60;;;3.00;;
28481;SDS011;15703;49.588;6.260;2024-01-25T13:29:55;9.60;;;4.00;;
28481;SDS011;15703;49.588;6.260;2024-01-25T13:32:18;9.23;;;3.97;;
28481;SDS011;15703;49.588;6.260;2024-01-25T13:34:41;12.57;;;3.57;;
28481;SDS011;15703;49.588;6.260;2024-01-25T13:37:04;10.33;;;3.70;;
28481;SDS011;15703;49.588;6.260;2024-01-25T13:39:27;14.63;;;4.50;;
28481;SDS011;15703;49.588;6.260;2024-01-25T13:41:51;13.07;;;4.27;;
28481;SDS011;15703;49.588;6.260;2024-01-25T13:44:14;10.73;;;3.53;;
28481;SDS011;15703;49.588;6.260;2024-01-25T13:46:36;14.30;;;3.50;;
28481;SDS011;15703;49.588;6.260;2024-01-25T13:48:59;10.23;;;3.57;;
28481;SDS011;15703;49.588;6.260;2024-01-25T13:51:21;14.70;;;3.30;;
28481;SDS011;15703;49.588;6.260;2024-01-25T13:53:44;13.80;;;3.50;;
28481;SDS011;15703;49.588;6.260;2024-01-25T13:56:06;12.30;;;3.47;;
28481;SDS011;15703;49.588;6.260;2024-01-25T13:58:28;8.57;;;4.47;;
28481;SDS011;15703;49.588;6.260;2024-01-25T14:00:51;10.13;;;3.57;;
28481;SDS011;15703;49.588;6.260;2024-01-25T14:03:14;10.63;;;3.37;;
28481;SDS011;15703;49.588;6.260;2024-01-25T14:05:38;12.03;;;3.47;;
28481;SDS011;15703;49.588;6.260;2024-01-25T14:08:01;10.00;;;3.77;;
28481;SDS011;15703;49.588;6.260;2024-01-25T14:10:24;11.73;;;3.60;;
28481;SDS011;15703;49.588;6.260;2024-01-25T14:12:50;12.67;;;3.37;;
28481;SDS011;15703;49.588;6.260;2024-01-25T14:15:13;10.13;;;3.40;;
28481;SDS011;15703;49.588;6.260;2024-01-25T14:17:35;7.77;;;2.77;;
28481;SDS011;15703;49.588;6.260;2024-01-25T14:19:59;7.70;;;2.60;;
28481;SDS011;15703;49.588;6.260;2024-01-25T14:22:24;10.50;;;3.37;;
28481;SDS011;15703;49.588;6.260;2024-01-25T14:24:53;5.43;;;2.73;;
28481;SDS011;15703;49.588;6.260;2024-01-25T14:27:17;8.57;;;3.07;;
28481;SDS011;15703;49.588;6.260;2024-01-25T14:29:40;5.33;;;2.63;;
28481;SDS011;15703;49.588;6.260;2024-01-25T14:32:03;7.63;;;2.50;;
28481;SDS011;15703;49.588;6.260;2024-01-25T14:34:26;9.73;;;3.27;;
28481;SDS011;15703;49.588;6.260;2024-01-25T14:36:49;6.13;;;2.83;;
28481;SDS011;15703;49.588;6.260;2024-01-25T14:39:16;3.70;;;2.77;;
28481;SDS011;15703;49.588;6.260;2024-01-25T14:41:40;6.17;;;2.83;;
28481;SDS011;15703;49.588;6.260;2024-01-25T14:44:03;5.70;;;3.20;;
28481;SDS011;15703;49.588;6.260;2024-01-25T14:46:26;7.43;;;2.53;;
28481;SDS011;15703;49.588;6.260;2024-01-25T14:48:48;5.43;;;3.00;;
28481;SDS011;15703;49.588;6.260;2024-01-25T14:51:11;7.50;;;3.17;;
28481;SDS011;15703;49.588;6.260;2024-01-25T14:53:33;3.30;;;2.60;;
28481;SDS011;15703;49.588;6.260;2024-01-25T14:55:56;7.30;;;2.93;;
28481;SDS011;15703;49.588;6.260;2024-01-25T14:58:18;5.47;;;3.30;;
28481;SDS011;15703;49.588;6.260;2024-01-25T15:00:44;4.90;;;3.10;;
28481;SDS011;15703;49.588;6.260;2024-01-25T15:03:07;10.13;;;3.27;;
28481;SDS011;15703;49.588;6.260;2024-01-25T15:05:29;5.27;;;3.70;;
28481;SDS011;15703;49.588;6.260;2024-01-25T15:07:52;5.00;;;3.90;;
28481;SDS011;15703;49.588;6.260;2024-01-25T15:10:15;5.57;;;4.00;;
28481;SDS011;15703;49.588;6.260;2024-01-25T15:12:37;7.70;;;5.50;;
28481;SDS011;15703;49.588;6.260;2024-01-25T15:15:00;7.13;;;5.00;;
28481;SDS011;15703;49.588;6.260;2024-01-25T15:17:23;7.57;;;5.80;;
28481;SDS011;15703;49.588;6.260;2024-01-25T15:19:45;7.53;;;5.90;;
28481;SDS011;15703;49.588;6.260;2024-01-25T15:22:08;8.40;;;6.07;;
28481;SDS011;15703;49.588;6.260;2024-01-25T15:24:30;9.97;;;6.67;;
28481;SDS011;15703;49.588;6.260;2024-01-25T15:26:53;9.30;;;6.40;;
28481;SDS011;15703;49.588;6.260;2024-01-25T15:29:16;9.57;;;6.20;;
28481;SDS011;15703;49.588;6.260;2024-01-25T15:31:38;10.60;;;7.90;;
28481;SDS011;15703;49.588;6.260;2024-01-25T15:34:01;11.37;;;7.90;;
28481;SDS011;15703;49.588;6.260;2024-01-25T15:36:24;14.43;;;7.93;;
28481;SDS011;15703;49.588;6.260;2024-01-25T15:38:46;16.63;;;8.27;;
28481;SDS011;15703;49.588;6.260;2024-01-25T15:41:11;12.27;;;7.80;;
28481;SDS011;15703;49.588;6.260;2024-01-25T15:43:34;14.63;;;7.83;;
28481;SDS011;15703;49.588;6.260;2024-01-25T15:45:57;12.57;;;8.33;;
28481;SDS011;15703;49.588;6.260;2024-01-25T15:48:19;13.33;;;7.47;;
28481;SDS011;15703;49.588;6.260;2024-01-25T15:50:42;13.57;;;8.50;;
28481;SDS011;15703;49.588;6.260;2024-01-25T15:53:04;14.47;;;7.47;;
28481;SDS011;15703;49.588;6.260;2024-01-25T15:55:27;12.37;;;7.70;;
28481;SDS011;15703;49.588;6.260;2024-01-25T15:57:49;10.60;;;6.73;;
28481;SDS011;15703;49.588;6.260;2024-01-25T16:00:12;10.83;;;7.50;;
28481;SDS011;15703;49.588;6.260;2024-01-25T16:02:36;13.63;;;7.90;;
28481;SDS011;15703;49.588;6.260;2024-01-25T16:04:59;12.43;;;7.37;;
28481;SDS011;15703;49.588;6.260;2024-01-25T16:07:21;15.47;;;8.03;;
28481;SDS011;15703;49.588;6.260;2024-01-25T16:09:44;13.07;;;7.87;;
28481;SDS011;15703;49.588;6.260;2024-01-25T16:12:08;11.47;;;7.43;;
28481;SDS011;15703;49.588;6.260;2024-01-25T16:14:31;11.37;;;8.33;;
28481;SDS011;15703;49.588;6.260;2024-01-25T16:16:54;11.83;;;8.77;;
28481;SDS011;15703;49.588;6.260;2024-01-25T16:19:16;13.43;;;8.20;;
28481;SDS011;15703;49.588;6.260;2024-01-25T16:21:39;15.20;;;8.87;;
28481;SDS011;15703;49.588;6.260;2024-01-25T16:24:01;15.80;;;9.23;;
28481;SDS011;15703;49.588;6.260;2024-01-25T16:26:25;14.17;;;9.53;;
28481;SDS011;15703;49.588;6.260;2024-01-25T16:28:48;15.23;;;9.80;;
28481;SDS011;15703;49.588;6.260;2024-01-25T16:31:10;13.27;;;9.77;;
28481;SDS011;15703;49.588;6.260;2024-01-25T16:33:32;17.67;;;10.27;;
28481;SDS011;15703;49.588;6.260;2024-01-25T16:35:55;18.27;;;10.40;;
28481;SDS011;15703;49.588;6.260;2024-01-25T16:38:19;18.77;;;11.73;;
28481;SDS011;15703;49.588;6.260;2024-01-25T16:40:41;16.97;;;11.17;;
28481;SDS011;15703;49.588;6.260;2024-01-25T16:43:04;21.47;;;12.27;;
28481;SDS011;15703;49.588;6.260;2024-01-25T16:45:29;21.20;;;11.83;;
28481;SDS011;15703;49.588;6.260;2024-01-25T16:47:51;20.57;;;12.10;;
28481;SDS011;15703;49.588;6.260;2024-01-25T16:50:14;19.63;;;11.67;;
28481;SDS011;15703;49.588;6.260;2024-01-25T16:52:37;22.33;;;11.60;;
28481;SDS011;15703;49.588;6.260;2024-01-25T16:54:59;23.23;;;12.60;;
28481;SDS011;15703;49.588;6.260;2024-01-25T16:57:21;26.10;;;13.13;;
28481;SDS011;15703;49.588;6.260;2024-01-25T16:59:44;23.40;;;13.53;;
28481;SDS011;15703;49.588;6.260;2024-01-25T17:02:06;23.20;;;13.90;;
28481;SDS011;15703;49.588;6.260;2024-01-25T17:04:29;25.23;;;14.17;;
28481;SDS011;15703;49.588;6.260;2024-01-25T17:06:51;23.50;;;13.27;;
28481;SDS011;15703;49.588;6.260;2024-01-25T17:09:14;25.23;;;13.73;;